x

Ilm3 - 27 Miles Se Of Wrightsville Beach, Nc (41037) Weather Station

2:00am - Fri 26th Dec 2014 All times are EST. -5 hours from GMT.

  • Wind
    13mph, 16mph gusts
  • Sea Temp 59°f
  • Air Temp 53°f
  • Sea Pressure 1025.5mb
  • Ilm3 - 27 Miles Se Of Wrightsville Beach, Nc
  • Ilm3 - 27 Miles Se Of Wrightsville Beach, Nc

More Historic Weather Station data

Upgrade to MSW Pro to gain access to the past 30 days of data for over 8000 Wavebouys and Weather Stations around the globe.

Join Pro

Comparision Forecast

View Surf forecast
   
Fri 12/26 2:00am 13 16 mph 1025.5mb 59f 53f
1:00am 13 18 mph 1025mb 60f 54f
12:00am 13 16 mph 1025mb 60f 53f
Thu 12/25 11:00pm 11 13 mph 1025.2mb 60f 54f
10:00pm 9 11 mph 1025.2mb 60f 54f
9:00pm 11 13 mph 1024.8mb 60f 54f
8:00pm 11 13 mph 1024mb 60f 54f
7:00pm 11 13 mph 1023mb 60f 54f
6:00pm 9 11 mph 1022.2mb 60f 54f
5:00pm 9 13 mph 1021.5mb 60f 54f
4:00pm 11 13 mph 1021.1mb 60f 54f
3:00pm 11 13 mph 1020.7mb 60f 53f
2:00pm 13 16 mph 1018.9mb 61f 53f
1:00pm 16 18 mph 1019.1mb 61f 52f
12:00pm 16 18 mph 1018.9mb 61f 53f
11:00am 20 25 mph 1019.1mb 61f 53f
10:00am 25 31 mph 1018.3mb 62f 54f
9:00am 20 25 mph 1017.3mb 62f 55f
8:00am 20 25 mph 1015.7mb 62f 57f
7:00am 18 22 mph 1013.9mb 62f 58f
6:00am 22 27 mph 1011.7mb 61f 58f
5:00am 18 22 mph 1011.2mb 61f 60f
4:00am 13 20 mph 1010mb 61f 60f
3:00am 16 18 mph 1010.6mb 62f 59f
2:00am 16 18 mph 1009.8mb 62f 60f
1:00am 16 20 mph 1010.2mb 62f 63f
12:00am 11 16 mph 1009.4mb 62f 63f
Wed 12/24 11:00pm 13 18 mph 1009.8mb 62f 63f
10:00pm 16 20 mph 1010.1mb 62f 64f
9:00pm 11 16 mph 1010.2mb 62f 64f
8:00pm 7 9 mph 1011.1mb 62f 62f
7:00pm 7 9 mph 1011.2mb 62f 60f
6:00pm 7 11 mph 1011.3mb 62f 60f
5:00pm 16 20 mph 1011mb 62f 65f
4:00pm 18 25 mph 1010.6mb 62f 65f
3:00pm 18 20 mph 1010.7mb 63f 66f
2:00pm 18 25 mph 1011.1mb 63f 66f
1:00pm 22 27 mph 1011mb 63f 67f
12:00pm 20 27 mph 1011.7mb 63f 68f
11:00am 18 22 mph 1012.8mb 64f 67f
10:00am 20 25 mph 1013mb 64f 67f
9:00am 18 22 mph 1013.3mb 64f 67f
8:00am 20 25 mph 1013.1mb 64f 67f
7:00am 20 22 mph 1013mb 64f 67f
6:00am 22 27 mph 1012mb 63f 67f
5:00am 18 22 mph 1012.2mb 62f 66f
4:00am 7 9 mph 1013.9mb 62f 64f
3:00am 7
mph
1015.8mb 62f 62f
2:00am 7 9 mph 1015.1mb 62f 62f
1:00am 4 7 mph 1015.2mb 62f 62f
12:00am 2 4 mph 1017.7mb 62f 63f
Tue 12/23 11:00pm 18 20 mph 1017.4mb 62f 63f
10:00pm 2 4 mph 1017.5mb 62f 62f
9:00pm 4 7 mph 1016.6mb 62f 60f
8:00pm 9 11 mph 1016.4mb 62f 59f
7:00pm 13 16 mph 1016.3mb 62f 58f
6:00pm 16 20 mph 1016.3mb 62f 56f
5:00pm 13 16 mph 1016.9mb 62f 56f
4:00pm 16 18 mph 1016.9mb 62f 55f
3:00pm 13 16 mph 1017.2mb 62f 54f
2:00pm 16 18 mph 1016.5mb 62f 55f
1:00pm 11 13 mph 1017.2mb 62f 56f
12:00pm 11 13 mph 1017.8mb 62f 57f
11:00am 11 16 mph 1018.3mb 62f 56f
10:00am 13 16 mph 1018.6mb 62f 55f
9:00am 11 16 mph 1017.9mb 62f 54f
8:00am 13 16 mph 1017.6mb 62f 53f
7:00am 13 16 mph 1017.2mb 62f 52f
6:00am 13 18 mph 1016.8mb 62f 51f
5:00am 11 13 mph 1016.6mb 62f 51f
4:00am 11
mph
1016.7mb 61f 50f
3:00am 11 13 mph 1017.1mb 61f 49f
2:00am 13 16 mph 1016.7mb 61f 49f
1:00am 16 20 mph 1015.8mb 61f 48f
12:00am 16 18 mph 1016.7mb 62f 48f
Mon 12/22 11:00pm 11 16 mph 1017.5mb 62f 49f
10:00pm 11 13 mph 1017.4mb 62f 49f
9:00pm 13 16 mph 1017mb 62f 49f
8:00pm 11 13 mph 1016.2mb 62f 49f
7:00pm 13
mph
1016.1mb 62f 51f
6:00pm 9 11 mph 1017mb 62f 49f
5:00pm 16 20 mph 1016.2mb 62f 49f
4:00pm 16 18 mph 1016.6mb 62f 49f
3:00pm 16 20 mph 1016.4mb 62f 49f
2:00pm 11 16 mph 1016.4mb 62f 48f
1:00pm 13 20 mph 1016.9mb 62f 48f
12:00pm 16 20 mph 1017.7mb 62f 48f
11:00am 18 20 mph 1018.4mb 62f 48f
10:00am 18 22 mph 1018.7mb 62f 49f
9:00am 20 25 mph 1017.9mb 62f 51f